Time;durP1;ratioP1;P1;durP2;ratioP2;P2;SDS_P1;SDS_P2;PMS_P1;PMS_P2;Temp;Humidity;BMP_temperature;BMP_pressure;BME280_temperature;BME280_humidity;BME280_pressure;Samples;Min_cycle;Max_cycle;Signal;HPM_P1;HPM_P2
2022/04/23 09:05:07;;;;;;;;;6.00;6.00;;;;;;;;1584977;27;83924;-67
2022/04/23 09:05:53;;;;;;;;;14.60;14.60;;;;;;;;1576251;27;83420;-67
2022/04/23 09:06:42;;;;;;;;;12.75;12.75;;;;;;;;1561011;27;83271;-69
2022/04/23 09:07:29;;;;;;;;;17.60;17.60;;;;;;;;1552008;28;85557;-69
2022/04/23 09:08:14;;;;;;;;;13.00;13.00;;;;;;;;1552074;28;83322;-69
2022/04/23 09:09:20;;;;;;;;;13.00;13.00;;;;;;;;1552351;28;83662;-69
2022/04/23 09:10:06;;;;;;;;;7.75;7.75;;;;;;;;1553111;28;83286;-70
2022/04/23 09:10:54;;;;;;;;;14.50;14.50;;;;;;;;1553054;28;83358;-69
2022/04/23 09:11:41;;;;;;;;;9.75;9.75;;;;;;;;1557775;28;83401;-68
2022/04/23 09:12:27;;;;;;;;;14.50;14.50;;;;;;;;1559081;27;83474;-68
2022/04/23 09:13:25;;;;;;;;;13.00;13.00;;;;;;;;1558726;27;83629;-68
2022/04/23 09:14:21;;;;;;;;;12.00;12.00;;;;;;;;1552892;27;83300;-68
2022/04/23 09:23:39;;;;;;;;;12.50;12.50;;;;;;;;1553011;28;83447;-68
2022/04/23 09:24:09;;;;;;;;;8.50;8.50;;;;;;;;1553033;28;83279;-68
2022/04/23 09:24:55;;;;;;;;;12.00;12.00;;;;;;;;1553262;28;83953;-68
2022/04/23 09:25:41;;;;;;;;;8.75;8.75;;;;;;;;1552932;28;83586;-68
2022/04/23 09:26:28;;;;;;;;;8.75;8.75;;;;;;;;1557394;28;83423;-68
2022/04/23 09:27:14;;;;;;;;;10.25;9.75;;;;;;;;1559496;28;83641;-68
2022/04/23 09:28:12;;;;;;;;;9.75;9.75;;;;;;;;1559360;27;83333;-68
2022/04/23 09:29:00;;;;;;;;;10.00;9.00;;;;;;;;1558570;28;85749;-68
2022/04/23 09:29:58;;;;;;;;;8.25;8.25;;;;;;;;1559035;28;83362;-68
2022/04/23 09:30:44;;;;;;;;;9.75;9.75;;;;;;;;1562013;28;84088;-68
2022/04/23 09:31:29;;;;;;;;;10.25;10.25;;;;;;;;1559329;28;84243;-68
2022/04/23 09:32:15;;;;;;;;;9.67;9.67;;;;;;;;1559096;28;84035;-68
2022/04/23 09:33:01;;;;;;;;;12.00;12.00;;;;;;;;1559434;27;83931;-68
2022/04/23 09:33:54;;;;;;;;;16.50;16.50;;;;;;;;1559176;27;84040;-68
2022/04/23 09:34:40;;;;;;;;;12.00;12.00;;;;;;;;1559117;28;83948;-68
2022/04/23 09:35:25;;;;;;;;;8.33;8.33;;;;;;;;1559080;28;83945;-68
2022/04/23 09:36:12;;;;;;;;;11.00;11.00;;;;;;;;1553588;27;84128;-68
2022/04/23 09:37:00;;;;;;;;;14.00;14.00;;;;;;;;1552939;28;83080;-68
2022/04/23 09:39:01;;;;;;;;;11.40;11.40;;;;;;;;1552888;28;83757;-68
2022/04/23 09:39:46;;;;;;;;;15.00;15.00;;;;;;;;1552812;28;83084;-69
2022/04/23 09:40:31;;;;;;;;;12.50;12.50;;;;;;;;1552840;28;84111;-69
2022/04/23 09:41:30;;;;;;;;;12.50;11.75;;;;;;;;1552657;28;84059;-68
2022/04/23 09:42:15;;;;;;;;;14.50;13.50;;;;;;;;1552831;28;84311;-68
2022/04/23 09:43:05;;;;;;;;;10.75;10.75;;;;;;;;1552842;28;83204;-68
2022/04/23 09:44:05;;;;;;;;;6.20;6.20;;;;;;;;1552945;28;83344;-68
2022/04/23 09:44:50;;;;;;;;;15.00;15.00;;;;;;;;1553026;28;85107;-68
2022/04/23 09:45:41;;;;;;;;;12.75;12.75;;;;;;;;1552804;28;83906;-68
2022/04/23 09:46:26;;;;;;;;;13.80;13.80;;;;;;;;1552828;28;84281;-68
2022/04/23 09:47:28;;;;;;;;;10.50;10.50;;;;;;;;1552876;28;84217;-68
2022/04/23 09:48:15;;;;;;;;;10.00;10.00;;;;;;;;1552771;28;84068;-68
2022/04/23 09:49:03;;;;;;;;;10.20;10.20;;;;;;;;1552883;28;84260;-69
2022/04/23 09:49:54;;;;;;;;;7.80;7.80;;;;;;;;1552805;28;83956;-69
2022/04/23 09:50:40;;;;;;;;;10.40;10.40;;;;;;;;1553729;28;84079;-68
2022/04/23 09:51:26;;;;;;;;;11.75;11.75;;;;;;;;1552605;28;83080;-69
2022/04/23 09:52:11;;;;;;;;;6.50;6.50;;;;;;;;1552793;28;84066;-69
2022/04/23 09:53:07;;;;;;;;;7.50;7.50;;;;;;;;1553153;28;83857;-69
2022/04/23 09:53:53;;;;;;;;;6.60;6.20;;;;;;;;1553059;28;83365;-68
2022/04/23 09:54:39;;;;;;;;;5.00;5.00;;;;;;;;1555587;28;83223;-68
2022/04/23 09:55:24;;;;;;;;;9.25;9.25;;;;;;;;1552820;28;83513;-69
2022/04/23 09:56:10;;;;;;;;;12.40;12.00;;;;;;;;1559067;28;83410;-69
2022/04/23 09:56:56;;;;;;;;;10.80;10.80;;;;;;;;1559081;28;84119;-68
2022/04/23 09:57:42;;;;;;;;;10.25;10.25;;;;;;;;1563709;27;83631;-68
2022/04/23 09:58:29;;;;;;;;;5.40;5.40;;;;;;;;1565327;27;83467;-68
2022/04/23 09:59:14;;;;;;;;;9.60;9.60;;;;;;;;1559279;27;83305;-69
2022/04/23 09:59:59;;;;;;;;;7.00;7.00;;;;;;;;1554426;28;83216;-68
2022/04/23 10:00:45;;;;;;;;;8.00;8.00;;;;;;;;1553101;28;83496;-69
2022/04/23 10:01:31;;;;;;;;;10.00;10.00;;;;;;;;1553012;28;83190;-69
2022/04/23 10:02:19;;;;;;;;;10.20;10.20;;;;;;;;1552738;28;83668;-69
2022/04/23 10:03:08;;;;;;;;;7.80;7.80;;;;;;;;1552756;28;83514;-69
2022/04/23 10:03:54;;;;;;;;;7.00;7.00;;;;;;;;1553003;28;83303;-69
2022/04/23 10:04:39;;;;;;;;;8.75;8.75;;;;;;;;1552814;28;83206;-69
2022/04/23 10:05:26;;;;;;;;;6.50;6.50;;;;;;;;1551059;28;83385;-69
2022/04/23 10:06:11;;;;;;;;;6.20;6.20;;;;;;;;1546911;28;83226;-69
2022/04/23 10:07:00;;;;;;;;;8.00;8.00;;;;;;;;1546933;28;83075;-69
2022/04/23 10:07:47;;;;;;;;;10.40;10.40;;;;;;;;1546804;28;83595;-69
2022/04/23 10:08:33;;;;;;;;;10.80;10.80;;;;;;;;1546573;28;83365;-69
2022/04/23 10:09:21;;;;;;;;;7.20;7.20;;;;;;;;1546630;28;83421;-69
2022/04/23 10:10:09;;;;;;;;;8.40;8.40;;;;;;;;1546864;28;83239;-69
2022/04/23 10:11:07;;;;;;;;;7.80;7.80;;;;;;;;1551353;28;83740;-69
2022/04/23 10:11:57;;;;;;;;;7.40;7.40;;;;;;;;1553144;28;83359;-69
2022/04/23 10:12:43;;;;;;;;;9.00;9.00;;;;;;;;1552948;28;83387;-69
2022/04/23 10:13:29;;;;;;;;;5.00;5.00;;;;;;;;1552952;28;83416;-69
2022/04/23 10:14:18;;;;;;;;;7.40;7.40;;;;;;;;1552919;28;83527;-69
2022/04/23 10:15:03;;;;;;;;;11.00;11.00;;;;;;;;1552257;28;83477;-69
2022/04/23 10:15:49;;;;;;;;;8.50;8.50;;;;;;;;1552281;28;83450;-69
2022/04/23 10:16:34;;;;;;;;;8.00;8.00;;;;;;;;1547547;28;83187;-69
2022/04/23 10:17:20;;;;;;;;;9.75;9.75;;;;;;;;1548917;28;83833;-69
2022/04/23 10:18:07;;;;;;;;;6.20;6.20;;;;;;;;1548994;28;83878;-69
2022/04/23 10:18:55;;;;;;;;;8.60;8.60;;;;;;;;1548840;28;83335;-69
2022/04/23 10:19:41;;;;;;;;;8.40;8.40;;;;;;;;1548560;28;83418;-69
2022/04/23 10:20:28;;;;;;;;;9.00;9.00;;;;;;;;1548785;28;83901;-69
2022/04/23 10:21:24;;;;;;;;;9.20;9.20;;;;;;;;1547633;28;83791;-69
2022/04/23 10:22:14;;;;;;;;;10.00;10.00;;;;;;;;1548514;28;84697;-69
2022/04/23 10:23:21;;;;;;;;;6.60;6.60;;;;;;;;1548638;28;83744;-69
2022/04/23 10:24:13;;;;;;;;;8.20;8.20;;;;;;;;1548254;28;85444;-69
2022/04/23 10:24:58;;;;;;;;;7.00;7.00;;;;;;;;1548358;28;83596;-69
2022/04/23 10:25:53;;;;;;;;;7.00;7.00;;;;;;;;1548592;28;83544;-69
2022/04/23 10:26:45;;;;;;;;;9.00;9.00;;;;;;;;1548790;28;83331;-69
2022/04/23 10:27:30;;;;;;;;;6.60;6.60;;;;;;;;1548793;28;83553;-69
2022/04/23 10:28:18;;;;;;;;;11.75;11.75;;;;;;;;1548817;28;83912;-69
2022/04/23 10:29:08;;;;;;;;;8.00;8.00;;;;;;;;1548707;28;83664;-70
2022/04/23 10:29:57;;;;;;;;;10.00;10.00;;;;;;;;1548833;28;83733;-70
2022/04/23 10:30:45;;;;;;;;;7.40;7.40;;;;;;;;1548417;28;83493;-69
2022/04/23 10:31:30;;;;;;;;;9.60;9.60;;;;;;;;1547376;28;86618;-69
2022/04/23 10:32:20;;;;;;;;;11.75;11.75;;;;;;;;1548083;28;83897;-69
2022/04/23 10:33:27;;;;;;;;;8.20;8.20;;;;;;;;1548334;28;83672;-69
2022/04/23 10:34:31;;;;;;;;;9.80;9.80;;;;;;;;1548267;28;83733;-69
2022/04/23 10:35:16;;;;;;;;;10.00;10.00;;;;;;;;1548534;28;83667;-69
2022/04/23 10:36:03;;;;;;;;;10.00;10.00;;;;;;;;1548050;28;83503;-69
2022/04/23 10:37:08;;;;;;;;;10.00;10.00;;;;;;;;1542228;28;83526;-69
2022/04/23 10:37:53;;;;;;;;;10.60;10.60;;;;;;;;1542295;28;84628;-70
2022/04/23 10:38:44;;;;;;;;;9.00;9.00;;;;;;;;1542389;28;83769;-69
2022/04/23 10:39:29;;;;;;;;;8.80;8.80;;;;;;;;1542382;28;83663;-69
2022/04/23 10:40:18;;;;;;;;;10.00;10.00;;;;;;;;1545100;28;84026;-69
2022/04/23 10:41:04;;;;;;;;;8.40;8.40;;;;;;;;1542472;28;84185;-70
2022/04/23 10:41:51;;;;;;;;;9.00;9.00;;;;;;;;1542349;28;84101;-69
2022/04/23 10:42:38;;;;;;;;;8.00;8.00;;;;;;;;1542382;28;83978;-69
2022/04/23 10:43:24;;;;;;;;;8.60;8.60;;;;;;;;1542335;28;83982;-69
2022/04/23 10:44:10;;;;;;;;;9.20;9.20;;;;;;;;1542394;28;84354;-69
2022/04/23 10:44:56;;;;;;;;;10.60;10.60;;;;;;;;1542361;28;84205;-69
2022/04/23 10:45:41;;;;;;;;;9.25;9.25;;;;;;;;1547627;28;83953;-69
2022/04/23 10:46:40;;;;;;;;;10.50;10.50;;;;;;;;1543556;28;83994;-69
2022/04/23 10:47:32;;;;;;;;;10.20;10.20;;;;;;;;1542215;28;84127;-69
2022/04/23 10:48:23;;;;;;;;;10.60;10.60;;;;;;;;1542308;28;83174;-70
2022/04/23 10:49:18;;;;;;;;;7.40;7.40;;;;;;;;1542137;28;84034;-69
2022/04/23 10:50:19;;;;;;;;;8.60;8.60;;;;;;;;1542419;28;83984;-69
2022/04/23 10:51:08;;;;;;;;;8.20;8.20;;;;;;;;1542490;28;84009;-69
2022/04/23 10:51:57;;;;;;;;;9.20;9.20;;;;;;;;1542432;28;83330;-70
2022/04/23 10:52:42;;;;;;;;;10.00;10.00;;;;;;;;1542306;28;84052;-70
2022/04/23 10:53:47;;;;;;;;;7.50;7.50;;;;;;;;1542213;28;84007;-70
2022/04/23 10:54:46;;;;;;;;;7.60;7.60;;;;;;;;1542315;28;84249;-70
2022/04/23 10:55:31;;;;;;;;;10.40;10.40;;;;;;;;1542049;28;84245;-70
2022/04/23 10:56:17;;;;;;;;;9.00;9.00;;;;;;;;1541646;28;84058;-70
2022/04/23 10:57:05;;;;;;;;;10.80;10.80;;;;;;;;1542128;28;84141;-70
2022/04/23 10:57:54;;;;;;;;;8.20;8.20;;;;;;;;1542026;28;84187;-70
2022/04/23 10:58:42;;;;;;;;;10.20;10.20;;;;;;;;1542211;28;83234;-70
2022/04/23 10:59:42;;;;;;;;;11.00;11.00;;;;;;;;1547663;28;86131;-70
2022/04/23 11:00:30;;;;;;;;;10.20;10.20;;;;;;;;1554064;28;83842;-70
2022/04/23 11:01:22;;;;;;;;;10.80;8.80;;;;;;;;1550067;28;84191;-70
2022/04/23 11:02:33;;;;;;;;;10.40;10.40;;;;;;;;1548502;28;83851;-70
2022/04/23 11:03:26;;;;;;;;;12.60;12.60;;;;;;;;1548521;28;84132;-70
2022/04/23 11:04:12;;;;;;;;;7.80;7.80;;;;;;;;1548374;28;84138;-70
2022/04/23 11:12:54;;;;;;;;;7.00;7.00;;;;;;;;1543153;28;83318;-70
2022/04/23 11:13:39;;;;;;;;;5.60;5.60;;;;;;;;1542269;28;83318;-68
2022/04/23 11:14:37;;;;;;;;;6.75;6.75;;;;;;;;1542366;28;83300;-67
2022/04/23 11:15:22;;;;;;;;;9.80;9.80;;;;;;;;1542106;28;83386;-68
2022/04/23 11:16:11;;;;;;;;;7.50;7.50;;;;;;;;1542303;28;83238;-68
2022/04/23 11:16:56;;;;;;;;;6.60;6.60;;;;;;;;1542140;28;83515;-67
2022/04/23 11:18:03;;;;;;;;;7.00;7.00;;;;;;;;1541714;28;83391;-67
2022/04/23 11:18:52;;;;;;;;;5.80;5.80;;;;;;;;1541832;28;83189;-66
2022/04/23 11:19:39;;;;;;;;;6.00;6.00;;;;;;;;1541791;28;83518;-66
2022/04/23 11:20:25;;;;;;;;;8.80;8.80;;;;;;;;1541990;28;83253;-67
2022/04/23 11:21:13;;;;;;;;;7.00;7.00;;;;;;;;1542382;28;83146;-67
2022/04/23 11:21:58;;;;;;;;;4.20;4.20;;;;;;;;1542372;28;83411;-67
2022/04/23 11:22:43;;;;;;;;;8.00;8.00;;;;;;;;1542240;28;83560;-67
2022/04/23 11:23:29;;;;;;;;;8.25;8.25;;;;;;;;1542244;28;83362;-67
2022/04/23 11:24:15;;;;;;;;;10.00;10.00;;;;;;;;1542319;28;82869;-66
2022/04/23 11:25:01;;;;;;;;;7.20;7.20;;;;;;;;1542089;28;83446;-67
2022/04/23 11:25:55;;;;;;;;;4.75;4.75;;;;;;;;1542024;28;83502;-67
2022/04/23 11:26:48;;;;;;;;;7.80;7.80;;;;;;;;1542268;28;83313;-67
2022/04/23 11:27:36;;;;;;;;;7.00;7.00;;;;;;;;1542739;28;83166;-67
2022/04/23 11:28:22;;;;;;;;;7.00;7.00;;;;;;;;1541411;28;83195;-67
2022/04/23 11:29:07;;;;;;;;;6.75;6.75;;;;;;;;1541955;28;83595;-66
2022/04/23 11:29:52;;;;;;;;;4.00;4.00;;;;;;;;1544465;28;83075;-67
2022/04/23 11:30:38;;;;;;;;;6.50;6.50;;;;;;;;1542266;28;84056;-67
2022/04/23 11:31:23;;;;;;;;;8.00;8.00;;;;;;;;1541878;28;83202;-67
2022/04/23 11:32:08;;;;;;;;;6.25;6.25;;;;;;;;1542029;28;84590;-67
2022/04/23 11:32:54;;;;;;;;;6.25;6.25;;;;;;;;1541865;28;84687;-67
2022/04/23 11:33:50;;;;;;;;;5.25;5.25;;;;;;;;1542178;28;83866;-67
2022/04/23 11:34:39;;;;;;;;;7.20;7.20;;;;;;;;1542194;28;83591;-67
2022/04/23 11:35:27;;;;;;;;;8.00;8.00;;;;;;;;1542184;28;83716;-67
2022/04/23 11:36:13;;;;;;;;;7.40;7.40;;;;;;;;1542109;28;84024;-67
2022/04/23 11:36:58;;;;;;;;;6.00;6.00;;;;;;;;1542188;28;83717;-66
2022/04/23 11:37:43;;;;;;;;;6.75;6.75;;;;;;;;1542250;28;84203;-67
2022/04/23 11:38:29;;;;;;;;;8.00;8.00;;;;;;;;1542149;28;83436;-66
2022/04/23 11:39:14;;;;;;;;;8.50;8.50;;;;;;;;1542238;28;83661;-67
2022/04/23 11:40:13;;;;;;;;;7.75;7.75;;;;;;;;1542234;28;84062;-67
2022/04/23 11:40:58;;;;;;;;;7.40;7.40;;;;;;;;1542040;28;83581;-67
2022/04/23 11:41:49;;;;;;;;;6.00;6.00;;;;;;;;1542198;28;83649;-67
2022/04/23 11:42:44;;;;;;;;;7.60;7.60;;;;;;;;1547693;28;83637;-67
2022/04/23 11:43:31;;;;;;;;;5.40;5.40;;;;;;;;1548269;28;83719;-66
2022/04/23 11:44:16;;;;;;;;;5.20;5.20;;;;;;;;1548347;28;83754;-66
2022/04/23 11:45:02;;;;;;;;;4.50;4.50;;;;;;;;1548291;28;83385;-67
2022/04/23 11:45:47;;;;;;;;;1.00;1.00;;;;;;;;1548251;28;83948;-67
2022/04/23 11:46:39;;;;;;;;;6.00;6.00;;;;;;;;1548376;28;83296;-67
2022/04/23 11:47:29;;;;;;;;;6.00;6.00;;;;;;;;1544620;28;83338;-67
2022/04/23 11:48:15;;;;;;;;;4.80;4.80;;;;;;;;1542165;28;83697;-67
2022/04/23 11:49:00;;;;;;;;;5.20;5.20;;;;;;;;1542065;28;84087;-67
2022/04/23 11:49:46;;;;;;;;;5.25;5.25;;;;;;;;1542195;28;83653;-67
2022/04/23 11:50:31;;;;;;;;;6.75;6.75;;;;;;;;1541982;28;83674;-67
2022/04/23 11:51:18;;;;;;;;;2.50;2.50;;;;;;;;1542286;28;83796;-67
2022/04/23 11:52:05;;;;;;;;;5.80;5.80;;;;;;;;1542140;28;83683;-67
2022/04/23 11:53:16;;;;;;;;;6.00;6.00;;;;;;;;1544743;28;83527;-69
2022/04/23 11:54:01;;;;;;;;;6.00;6.00;;;;;;;;1542715;28;84044;-67
2022/04/23 11:54:48;;;;;;;;;6.25;6.25;;;;;;;;1542069;28;84004;-67
2022/04/23 11:55:33;;;;;;;;;4.00;4.00;;;;;;;;1542024;28;84102;-67
2022/04/23 11:56:25;;;;;;;;;6.00;6.00;;;;;;;;1542084;28;84486;-67
2022/04/23 11:57:11;;;;;;;;;6.00;6.00;;;;;;;;1544837;28;84065;-67
2022/04/23 11:58:04;;;;;;;;;7.00;7.00;;;;;;;;1548306;28;84129;-67
2022/04/23 11:58:54;;;;;;;;;5.00;5.00;;;;;;;;1548152;28;84072;-66
2022/04/23 11:59:40;;;;;;;;;4.00;4.00;;;;;;;;1548003;28;84418;-67
2022/04/23 12:00:26;;;;;;;;;4.00;4.00;;;;;;;;1548147;28;84206;-67
2022/04/23 12:01:12;;;;;;;;;5.00;5.00;;;;;;;;1548031;28;83148;-67
2022/04/23 12:01:57;;;;;;;;;6.00;6.00;;;;;;;;1546097;28;83365;-67
2022/04/23 12:02:45;;;;;;;;;7.00;7.00;;;;;;;;1542086;28;84044;-67
2022/04/23 12:03:30;;;;;;;;;7.40;7.40;;;;;;;;1542020;28;84286;-67
2022/04/23 12:04:15;;;;;;;;;6.00;6.00;;;;;;;;1542247;28;82981;-67
2022/04/23 12:05:03;;;;;;;;;7.00;7.00;;;;;;;;1541708;28;85026;-67
2022/04/23 12:05:56;;;;;;;;;4.60;4.60;;;;;;;;1542013;28;84209;-67
2022/04/23 12:06:45;;;;;;;;;5.80;5.80;;;;;;;;1541997;28;84048;-67
2022/04/23 12:07:31;;;;;;;;;6.00;6.00;;;;;;;;1541955;28;83214;-67
2022/04/23 12:08:21;;;;;;;;;7.40;7.40;;;;;;;;1542062;28;84187;-67
2022/04/23 12:09:07;;;;;;;;;4.80;4.80;;;;;;;;1542159;28;83809;-67
2022/04/23 12:09:56;;;;;;;;;5.60;5.60;;;;;;;;1541818;28;84181;-67
2022/04/23 12:10:41;;;;;;;;;6.80;6.80;;;;;;;;1541400;28;86495;-67
2022/04/23 12:11:28;;;;;;;;;4.75;4.75;;;;;;;;1541371;28;83864;-67
2022/04/23 12:12:32;;;;;;;;;6.40;6.40;;;;;;;;1545534;28;84202;-67
2022/04/23 12:13:18;;;;;;;;;6.20;6.20;;;;;;;;1541964;28;83993;-67
2022/04/23 12:14:04;;;;;;;;;4.40;4.40;;;;;;;;1541137;28;83264;-67
2022/04/23 12:14:50;;;;;;;;;5.75;5.75;;;;;;;;1541518;28;83291;-67
2022/04/23 12:15:44;;;;;;;;;5.40;5.40;;;;;;;;1540139;28;87221;-67
2022/04/23 12:16:31;;;;;;;;;7.00;7.00;;;;;;;;1552301;28;83359;-67
2022/04/23 12:17:29;;;;;;;;;6.60;6.60;;;;;;;;1544454;28;83477;-67
2022/04/23 12:18:14;;;;;;;;;4.00;4.00;;;;;;;;1542103;28;82876;-67
2022/04/23 12:19:00;;;;;;;;;3.50;3.50;;;;;;;;1542086;28;83326;-67
2022/04/23 12:19:46;;;;;;;;;4.00;4.00;;;;;;;;1541907;28;83472;-67
2022/04/23 12:20:34;;;;;;;;;4.00;4.00;;;;;;;;1541965;28;83239;-67
2022/04/23 12:21:20;;;;;;;;;4.40;4.40;;;;;;;;1541874;28;83413;-67
2022/04/23 12:22:05;;;;;;;;;6.00;6.00;;;;;;;;1542005;28;83302;-67
2022/04/23 12:22:54;;;;;;;;;6.60;6.60;;;;;;;;1541935;28;83558;-67
2022/04/23 12:23:40;;;;;;;;;5.00;5.00;;;;;;;;1541995;28;83141;-67
2022/04/23 12:24:33;;;;;;;;;4.00;4.00;;;;;;;;1541942;28;83248;-67
2022/04/23 12:25:18;;;;;;;;;6.00;6.00;;;;;;;;1542037;28;83098;-67
2022/04/23 12:26:07;;;;;;;;;4.75;4.75;;;;;;;;1547177;28;84746;-67
2022/04/23 12:26:59;;;;;;;;;3.80;3.80;;;;;;;;1545820;28;83368;-67
2022/04/23 12:27:53;;;;;;;;;3.00;3.00;;;;;;;;1548082;28;83383;-67
2022/04/23 12:40:46;;;;;;;;;7.00;7.00;;;;;;;;1547823;28;83336;-67
2022/04/23 12:41:31;;;;;;;;;6.20;6.20;;;;;;;;1546157;28;83731;-67
2022/04/23 12:42:20;;;;;;;;;4.75;4.75;;;;;;;;1550931;28;83304;-66
2022/04/23 12:43:35;;;;;;;;;5.60;5.60;;;;;;;;1548138;28;83904;-66
2022/04/23 12:44:20;;;;;;;;;7.00;7.00;;;;;;;;1551668;28;83837;-66
2022/04/23 12:45:17;;;;;;;;;8.00;8.00;;;;;;;;1547774;28;83386;-66
2022/04/23 12:46:05;;;;;;;;;10.20;10.20;;;;;;;;1547874;28;83528;-66
2022/04/23 12:46:53;;;;;;;;;9.60;9.60;;;;;;;;1545876;28;83489;-66
2022/04/23 12:47:38;;;;;;;;;6.80;6.80;;;;;;;;1545273;28;84171;-66
2022/04/23 12:48:24;;;;;;;;;6.50;6.50;;;;;;;;1547985;28;83783;-66
2022/04/23 12:49:09;;;;;;;;;6.00;6.00;;;;;;;;1547945;28;83514;-66
2022/04/23 12:50:00;;;;;;;;;7.00;7.00;;;;;;;;1547962;28;83953;-66
2022/04/23 12:50:46;;;;;;;;;8.00;8.00;;;;;;;;1548025;28;83233;-66
2022/04/23 12:51:31;;;;;;;;;8.00;8.00;;;;;;;;1547830;28;83285;-66
2022/04/23 12:52:21;;;;;;;;;9.50;9.50;;;;;;;;1526022;27;83916;-66
2022/04/23 12:53:06;;;;;;;;;8.00;8.00;;;;;;;;1535381;28;83637;-66
2022/04/23 12:53:51;;;;;;;;;10.00;10.00;;;;;;;;1535265;28;83490;-66
2022/04/23 12:54:36;;;;;;;;;3.75;3.75;;;;;;;;1535468;28;83545;-66
2022/04/23 12:55:22;;;;;;;;;8.00;8.00;;;;;;;;1535062;28;83620;-66
2022/04/23 12:56:08;;;;;;;;;10.40;10.40;;;;;;;;1533799;28;83462;-66
2022/04/23 12:56:53;;;;;;;;;9.00;9.00;;;;;;;;1534878;28;83394;-66
2022/04/23 12:57:40;;;;;;;;;6.25;6.25;;;;;;;;1535542;28;83443;-66
2022/04/23 12:58:27;;;;;;;;;9.00;9.00;;;;;;;;1535642;28;83718;-66
2022/04/23 12:59:12;;;;;;;;;5.00;5.00;;;;;;;;1535264;28;83222;-66
2022/04/23 12:59:57;;;;;;;;;7.00;7.00;;;;;;;;1534940;28;83814;-66
2022/04/23 13:00:43;;;;;;;;;5.00;5.00;;;;;;;;1535287;28;83656;-66
2022/04/23 13:01:28;;;;;;;;;10.67;10.67;;;;;;;;1534491;28;83841;-66
2022/04/23 13:02:13;;;;;;;;;7.67;7.67;;;;;;;;1535516;28;83693;-66
2022/04/23 13:03:12;;;;;;;;;7.00;6.00;;;;;;;;1535492;28;83806;-66
2022/04/23 13:03:58;;;;;;;;;5.75;5.75;;;;;;;;1535490;28;84252;-66
2022/04/23 13:04:43;;;;;;;;;6.00;6.00;;;;;;;;1537934;28;83685;-66
2022/04/23 13:05:28;;;;;;;;;7.67;7.67;;;;;;;;1535971;28;86082;-67
2022/04/23 13:09:24;;;;;;;;;3.00;3.00;;;;;;;;1535477;28;83700;-68
2022/04/23 13:10:10;;;;;;;;;3.00;3.00;;;;;;;;1535333;28;83936;-68
2022/04/23 13:10:56;;;;;;;;;4.00;4.00;;;;;;;;1534456;28;83855;-68
2022/04/23 13:11:41;;;;;;;;;7.00;7.00;;;;;;;;1534788;28;83214;-68
2022/04/23 13:12:27;;;;;;;;;6.67;6.67;;;;;;;;1535566;28;84453;-68
2022/04/23 13:13:12;;;;;;;;;6.00;6.00;;;;;;;;1535513;28;84059;-68
2022/04/23 13:13:59;;;;;;;;;5.33;5.33;;;;;;;;1535151;28;83899;-68
2022/04/23 13:14:45;;;;;;;;;4.00;4.00;;;;;;;;1535414;28;83982;-68
2022/04/23 13:15:31;;;;;;;;;4.00;4.00;;;;;;;;1535523;28;84126;-68
2022/04/23 13:16:16;;;;;;;;;4.33;4.33;;;;;;;;1534553;28;84434;-68
2022/04/23 13:17:01;;;;;;;;;5.00;5.00;;;;;;;;1535310;28;84055;-68
2022/04/23 13:17:47;;;;;;;;;3.33;3.33;;;;;;;;1535343;28;84120;-68
2022/04/23 13:18:32;;;;;;;;;5.00;5.00;;;;;;;;1534979;28;85165;-68
2022/04/23 13:19:17;;;;;;;;;4.00;4.00;;;;;;;;1535116;28;83824;-68
2022/04/23 13:20:02;;;;;;;;;7.67;7.67;;;;;;;;1538705;28;86916;-68
2022/04/23 13:20:47;;;;;;;;;6.00;6.00;;;;;;;;1546987;28;84241;-68
2022/04/23 13:21:33;;;;;;;;;5.33;5.33;;;;;;;;1545321;28;83982;-68
2022/04/23 13:22:18;;;;;;;;;3.00;3.00;;;;;;;;1541750;28;84139;-68
2022/04/23 13:23:05;;;;;;;;;5.67;5.67;;;;;;;;1541425;28;83798;-68
2022/04/23 13:23:51;;;;;;;;;2.00;2.00;;;;;;;;1535302;28;84554;-67
2022/04/23 13:24:36;;;;;;;;;1.60;1.60;;;;;;;;1533773;28;84336;-67
2022/04/23 13:25:22;;;;;;;;;3.25;3.25;;;;;;;;1538517;28;84160;-68
2022/04/23 13:26:07;;;;;;;;;3.25;3.25;;;;;;;;1535799;28;84278;-68
2022/04/23 13:26:52;;;;;;;;;4.75;4.75;;;;;;;;1535263;28;83956;-68
2022/04/23 13:27:37;;;;;;;;;3.00;3.00;;;;;;;;1535079;28;83420;-68
2022/04/23 13:28:23;;;;;;;;;5.25;5.25;;;;;;;;1535071;28;83356;-67
2022/04/23 13:29:09;;;;;;;;;3.00;3.00;;;;;;;;1533368;28;83554;-68
2022/04/23 13:29:54;;;;;;;;;4.00;4.00;;;;;;;;1534193;28;83245;-68
2022/04/23 13:30:39;;;;;;;;;3.00;3.00;;;;;;;;1536773;28;83459;-67
2022/04/23 13:31:25;;;;;;;;;4.75;4.75;;;;;;;;1535364;28;83577;-68
2022/04/23 13:32:10;;;;;;;;;3.00;3.00;;;;;;;;1534839;28;83618;-68
2022/04/23 13:32:55;;;;;;;;;4.00;4.00;;;;;;;;1534763;28;83526;-68
2022/04/23 13:33:41;;;;;;;;;4.00;4.00;;;;;;;;1535033;28;83448;-68
2022/04/23 13:34:26;;;;;;;;;4.00;4.00;;;;;;;;1535125;28;83276;-68
2022/04/23 13:35:12;;;;;;;;;3.00;3.00;;;;;;;;1534645;28;83520;-67
2022/04/23 13:35:58;;;;;;;;;6.60;5.40;;;;;;;;1535048;28;83524;-67
2022/04/23 13:36:43;;;;;;;;;7.00;7.00;;;;;;;;1535642;28;83614;-68
2022/04/23 13:37:28;;;;;;;;;4.67;4.67;;;;;;;;1535478;28;83437;-68
2022/04/23 13:38:16;;;;;;;;;5.00;5.00;;;;;;;;1534771;28;83425;-68
2022/04/23 13:39:01;;;;;;;;;5.20;5.20;;;;;;;;1534911;28;83439;-68
2022/04/23 13:39:47;;;;;;;;;6.00;6.00;;;;;;;;1534642;28;83232;-67
2022/04/23 13:40:32;;;;;;;;;6.00;6.00;;;;;;;;1534048;28;83217;-67
2022/04/23 13:41:18;;;;;;;;;6.00;6.00;;;;;;;;1533123;28;83526;-67
2022/04/23 13:42:03;;;;;;;;;6.25;6.25;;;;;;;;1536501;28;83533;-67
2022/04/23 13:42:49;;;;;;;;;5.00;5.00;;;;;;;;1534449;28;83393;-67
2022/04/23 13:43:35;;;;;;;;;6.67;6.67;;;;;;;;1534989;28;83293;-67
2022/04/23 13:44:22;;;;;;;;;3.00;3.00;;;;;;;;1535287;28;83666;-67
2022/04/23 13:45:07;;;;;;;;;3.60;3.60;;;;;;;;1539398;28;83210;-67
2022/04/23 13:45:52;;;;;;;;;4.00;4.00;;;;;;;;1534565;28;83407;-67
2022/04/23 13:46:38;;;;;;;;;5.00;5.00;;;;;;;;1533769;28;83323;-67
2022/04/23 13:47:23;;;;;;;;;3.00;3.00;;;;;;;;1529841;28;83473;-67
2022/04/23 13:48:09;;;;;;;;;4.00;4.00;;;;;;;;1534059;28;83520;-68
2022/04/23 13:48:56;;;;;;;;;8.50;8.50;;;;;;;;1538124;28;83489;-67
2022/04/23 13:49:43;;;;;;;;;4.50;4.50;;;;;;;;1545302;28;84753;-67
2022/04/23 13:50:28;;;;;;;;;5.50;5.50;;;;;;;;1546160;28;83831;-67
2022/04/23 13:51:13;;;;;;;;;3.00;3.00;;;;;;;;1542482;28;83514;-67
2022/04/23 13:52:00;;;;;;;;;8.00;8.00;;;;;;;;1536083;28;84024;-67
2022/04/23 13:52:45;;;;;;;;;5.75;5.75;;;;;;;;1536203;28;83498;-67
2022/04/23 13:53:31;;;;;;;;;6.00;6.00;;;;;;;;1536461;28;83474;-67
2022/04/23 13:54:16;;;;;;;;;4.00;4.00;;;;;;;;1536581;28;83363;-67
2022/04/23 13:55:02;;;;;;;;;7.00;7.00;;;;;;;;1538451;28;83594;-67
2022/04/23 13:55:47;;;;;;;;;7.67;7.67;;;;;;;;1537241;28;83658;-68
2022/04/23 13:56:33;;;;;;;;;5.00;5.00;;;;;;;;1536579;28;83735;-67
2022/04/23 13:57:18;;;;;;;;;5.00;5.00;;;;;;;;1537441;28;83933;-67
2022/04/23 13:58:03;;;;;;;;;4.33;4.33;;;;;;;;1537658;28;85752;-68
2022/04/23 13:58:49;;;;;;;;;4.33;4.33;;;;;;;;1535503;28;83627;-68
2022/04/23 13:59:34;;;;;;;;;4.00;4.00;;;;;;;;1535992;28;83221;-69
2022/04/23 14:00:19;;;;;;;;;4.67;4.67;;;;;;;;1539055;28;83467;-69
2022/04/23 14:01:04;;;;;;;;;3.67;3.67;;;;;;;;1532355;28;83653;-69
2022/04/23 14:10:35;;;;;;;;;2.00;2.00;;;;;;;;1535334;28;83279;-69
2022/04/23 14:11:20;;;;;;;;;1.00;1.00;;;;;;;;1536512;28;86036;-69
2022/04/23 14:12:05;;;;;;;;;4.00;4.00;;;;;;;;1535505;28;83658;-69
2022/04/23 14:12:51;;;;;;;;;5.67;5.67;;;;;;;;1538298;28;83662;-69
2022/04/23 14:13:36;;;;;;;;;4.00;4.00;;;;;;;;1536450;28;83142;-69
2022/04/23 14:14:21;;;;;;;;;3.33;3.33;;;;;;;;1536075;28;84180;-69
2022/04/23 14:15:07;;;;;;;;;4.33;4.33;;;;;;;;1535954;28;83915;-69
2022/04/23 14:15:53;;;;;;;;;2.33;2.33;;;;;;;;1532541;28;84024;-69
2022/04/23 14:16:40;;;;;;;;;4.50;4.50;;;;;;;;1531652;28;83880;-69
2022/04/23 14:17:27;;;;;;;;;8.50;8.50;;;;;;;;1532165;28;83849;-68
2022/04/23 14:18:12;;;;;;;;;5.50;5.50;;;;;;;;1536063;28;83245;-68
2022/04/23 14:18:57;;;;;;;;;4.33;4.33;;;;;;;;1536244;28;84019;-68
2022/04/23 14:19:43;;;;;;;;;4.00;4.00;;;;;;;;1536013;28;84485;-68
2022/04/23 14:20:28;;;;;;;;;3.33;3.33;;;;;;;;1535797;28;84502;-68
2022/04/23 14:21:13;;;;;;;;;2.00;2.00;;;;;;;;1536184;28;84453;-68
2022/04/23 14:21:58;;;;;;;;;2.33;2.33;;;;;;;;1536193;28;84182;-70
2022/04/23 14:22:43;;;;;;;;;1.67;1.67;;;;;;;;1536016;28;84306;-69
2022/04/23 14:23:29;;;;;;;;;2.00;2.00;;;;;;;;1537166;28;84240;-69
2022/04/23 14:24:14;;;;;;;;;2.33;2.33;;;;;;;;1535849;28;83939;-71
2022/04/23 14:24:59;;;;;;;;;3.00;3.00;;;;;;;;1535020;28;84065;-68
2022/04/23 14:25:46;;;;;;;;;2.00;2.00;;;;;;;;1534274;28;84427;-68
2022/04/23 14:26:31;;;;;;;;;5.50;5.50;;;;;;;;1535520;28;84189;-68
2022/04/23 14:27:17;;;;;;;;;5.00;5.00;;;;;;;;1536247;28;84131;-68
2022/04/23 14:28:03;;;;;;;;;6.00;6.00;;;;;;;;1535914;28;83354;-68
2022/04/23 14:28:48;;;;;;;;;5.00;5.00;;;;;;;;1535921;28;82998;-69
2022/04/23 14:29:33;;;;;;;;;3.00;3.00;;;;;;;;1536330;28;84104;-68
2022/04/23 14:30:18;;;;;;;;;2.00;2.00;;;;;;;;1533969;28;84136;-69
2022/04/23 14:31:04;;;;;;;;;5.00;5.00;;;;;;;;1536114;28;84532;-69
2022/04/23 14:31:49;;;;;;;;;3.67;3.67;;;;;;;;1535683;28;83287;-68